createdAt,value
2023-01-11T00:00:55.953Z,17.00
2023-01-11T00:03:23.257Z,16.70
2023-01-11T00:05:50.474Z,16.63
2023-01-11T00:08:19.217Z,14.80
2023-01-11T00:10:46.431Z,15.63
2023-01-11T00:13:14.711Z,14.73
2023-01-11T00:15:41.980Z,14.67
2023-01-11T00:18:09.572Z,13.63
2023-01-11T00:20:39.761Z,13.07
2023-01-11T00:23:07.152Z,13.07
2023-01-11T00:25:34.394Z,13.30
2023-01-11T00:28:01.538Z,12.40
2023-01-11T00:30:28.779Z,13.73
2023-01-11T00:32:59.481Z,12.73
2023-01-11T00:35:27.599Z,11.73
2023-01-11T00:37:55.223Z,11.83
2023-01-11T00:40:24.062Z,12.07
2023-01-11T00:43:10.242Z,13.50
2023-01-11T00:45:56.273Z,12.17
2023-01-11T00:48:23.551Z,12.87
2023-01-11T00:50:53.308Z,12.27
2023-01-11T00:53:20.523Z,12.30
2023-01-11T00:55:47.762Z,11.07
2023-01-11T00:58:15.907Z,12.53
2023-01-11T01:00:43.339Z,11.93
2023-01-11T01:03:10.717Z,11.67
2023-01-11T01:05:38.974Z,11.60
2023-01-11T01:08:06.542Z,11.07
2023-01-11T01:10:33.700Z,11.33
2023-01-11T01:13:19.544Z,12.77
2023-01-11T01:15:46.764Z,12.57
2023-01-11T01:18:14.179Z,12.50
2023-01-11T01:20:41.579Z,12.30
2023-01-11T01:23:08.927Z,12.03
2023-01-11T01:25:37.789Z,11.70
2023-01-11T01:28:05.173Z,11.77
2023-01-11T01:30:33.632Z,12.37
2023-01-11T01:33:00.860Z,12.60
2023-01-11T01:35:28.065Z,12.60
2023-01-11T01:37:55.203Z,11.50
2023-01-11T01:40:22.839Z,12.03
2023-01-11T01:42:53.953Z,11.67
2023-01-11T01:45:29.225Z,12.07
2023-01-11T01:48:03.116Z,12.87
2023-01-11T01:50:33.785Z,13.13
2023-01-11T01:53:06.269Z,12.73
2023-01-11T01:55:35.961Z,11.77
2023-01-11T01:58:05.507Z,12.27
2023-01-11T02:00:33.651Z,11.20
2023-01-11T02:03:02.530Z,12.23
2023-01-11T02:05:29.787Z,13.07
2023-01-11T02:07:58.918Z,12.03
2023-01-11T02:10:29.309Z,11.90
2023-01-11T02:13:05.555Z,12.83
2023-01-11T02:15:33.253Z,12.83
2023-01-11T02:18:00.431Z,12.17
2023-01-11T02:20:33.551Z,11.70
2023-01-11T02:23:19.249Z,13.17
2023-01-11T02:25:55.635Z,13.17
2023-01-11T02:28:41.423Z,12.80
2023-01-11T02:31:15.044Z,12.33
2023-01-11T02:33:48.215Z,12.57
2023-01-11T02:36:23.640Z,12.70
2023-01-11T02:39:03.019Z,12.27
2023-01-11T02:41:56.455Z,11.03
2023-01-11T02:45:02.035Z,11.70
2023-01-11T02:47:49.539Z,11.70
2023-01-11T02:50:31.915Z,11.07
2023-01-11T02:53:17.649Z,11.33
2023-01-11T02:55:51.792Z,11.37
2023-01-11T02:58:20.348Z,10.63
2023-01-11T03:00:48.151Z,10.40
2023-01-11T03:03:17.273Z,10.63
2023-01-11T03:05:47.091Z,10.83
2023-01-11T03:08:20.223Z,10.93
2023-01-11T03:11:06.302Z,10.93
2023-01-11T03:13:33.601Z,10.60
2023-01-11T03:16:19.686Z,10.77
2023-01-11T03:18:59.411Z,10.53
2023-01-11T03:21:32.776Z,10.13
2023-01-11T03:24:18.569Z,9.63
2023-01-11T03:26:46.128Z,9.80
2023-01-11T03:29:19.544Z,9.33
2023-01-11T03:31:55.932Z,8.73
2023-01-11T03:34:34.331Z,9.47
2023-01-11T03:37:07.999Z,9.40
2023-01-11T03:39:39.126Z,8.93
2023-01-11T03:42:08.247Z,9.80
2023-01-11T03:44:40.102Z,10.30
2023-01-11T03:47:09.246Z,9.80
2023-01-11T03:49:42.644Z,9.50
2023-01-11T03:52:12.565Z,9.67
2023-01-11T03:54:41.137Z,9.70
2023-01-11T03:57:10.612Z,9.20
2023-01-11T03:59:39.500Z,10.63
2023-01-11T04:02:15.147Z,10.23
2023-01-11T04:04:42.436Z,11.03
2023-01-11T04:07:09.633Z,9.80
2023-01-11T04:09:38.232Z,10.63
2023-01-11T04:12:05.739Z,9.93
2023-01-11T04:14:33.175Z,9.50
2023-01-11T04:17:00.509Z,9.60
2023-01-11T04:19:27.792Z,9.20
2023-01-11T04:21:55.016Z,9.30
2023-01-11T04:24:22.542Z,9.10
2023-01-11T04:26:49.740Z,10.20
2023-01-11T04:29:17.019Z,9.60
2023-01-11T04:31:44.238Z,8.30
2023-01-11T04:34:12.437Z,8.53
2023-01-11T04:36:39.653Z,9.40
2023-01-11T04:39:10.553Z,8.97
2023-01-11T04:41:57.020Z,9.03
2023-01-11T04:44:24.333Z,8.37
2023-01-11T04:46:51.573Z,8.13
2023-01-11T04:49:18.846Z,8.13
2023-01-11T04:51:46.184Z,8.23
2023-01-11T04:54:13.458Z,8.87
2023-01-11T04:56:40.678Z,9.27
2023-01-11T04:59:07.895Z,8.83
2023-01-11T05:01:35.093Z,8.27
2023-01-11T05:04:02.358Z,7.77
2023-01-11T05:06:29.632Z,8.80
2023-01-11T05:08:56.862Z,8.70
2023-01-11T05:11:24.058Z,9.87
2023-01-11T05:13:52.438Z,12.07
2023-01-11T05:16:24.455Z,10.67
2023-01-11T05:18:54.000Z,10.50
2023-01-11T05:21:22.546Z,11.80
2023-01-11T05:23:49.965Z,11.47
2023-01-11T05:26:23.155Z,12.10
2023-01-11T05:28:51.066Z,12.27
2023-01-11T05:31:18.818Z,13.47
2023-01-11T05:33:46.201Z,12.03
2023-01-11T05:36:17.630Z,11.70
2023-01-11T05:38:48.297Z,10.83
2023-01-11T05:41:16.320Z,10.57
2023-01-11T05:44:06.253Z,9.43
2023-01-11T05:46:34.207Z,10.30
2023-01-11T05:49:01.355Z,9.63
2023-01-11T05:51:32.782Z,9.50
2023-01-11T05:54:00.760Z,8.70
2023-01-11T05:56:28.339Z,10.00
2023-01-11T05:58:55.683Z,8.77
2023-01-11T06:01:23.842Z,9.03
2023-01-11T06:03:51.208Z,9.00
2023-01-11T06:06:19.486Z,10.37
2023-01-11T06:08:46.686Z,10.53
2023-01-11T06:11:14.864Z,11.23
2023-01-11T06:13:42.163Z,10.87
2023-01-11T06:16:16.464Z,9.30
2023-01-11T06:18:48.146Z,9.10
2023-01-11T06:21:16.155Z,9.33
2023-01-11T06:23:45.244Z,9.87
2023-01-11T06:26:14.271Z,9.60
2023-01-11T06:28:41.859Z,10.33
2023-01-11T06:31:09.256Z,10.40
2023-01-11T06:33:36.893Z,9.53
2023-01-11T06:36:06.354Z,8.43
2023-01-11T06:38:33.642Z,8.77
2023-01-11T06:41:01.484Z,8.97
2023-01-11T06:43:29.210Z,9.47
2023-01-11T06:45:56.622Z,9.60
2023-01-11T06:48:24.384Z,8.93
2023-01-11T06:50:52.809Z,9.07
2023-01-11T06:53:19.970Z,8.80
2023-01-11T06:55:51.262Z,8.73
2023-01-11T06:58:18.726Z,8.73
2023-01-11T07:00:46.242Z,8.07
2023-01-11T07:03:13.657Z,8.47
2023-01-11T07:05:41.228Z,8.40
2023-01-11T07:08:08.815Z,9.07
2023-01-11T07:10:36.043Z,8.70
2023-01-11T07:13:03.487Z,9.20
2023-01-11T07:15:30.934Z,8.60
2023-01-11T07:17:58.934Z,8.87
2023-01-11T07:20:26.354Z,9.33
2023-01-11T07:22:57.290Z,8.73
2023-01-11T07:25:25.710Z,9.50
2023-01-11T07:28:03.014Z,9.97
2023-01-11T07:30:31.263Z,8.63
2023-01-11T07:32:59.159Z,9.40
2023-01-11T07:35:28.162Z,8.63
2023-01-11T07:37:56.174Z,8.60
2023-01-11T07:40:23.435Z,8.97
2023-01-11T07:43:09.929Z,9.50
2023-01-11T07:45:45.464Z,10.03
2023-01-11T07:48:13.605Z,9.43
2023-01-11T07:50:44.233Z,9.23
2023-01-11T07:53:12.327Z,8.50
2023-01-11T07:55:40.271Z,8.20
2023-01-11T07:58:07.900Z,8.57
2023-01-11T08:00:35.127Z,7.97
2023-01-11T08:03:03.022Z,8.27
2023-01-11T08:05:30.375Z,8.80
2023-01-11T08:07:57.783Z,8.50
2023-01-11T08:10:25.269Z,9.03
2023-01-11T08:13:11.401Z,8.53
2023-01-11T08:15:42.350Z,8.53
2023-01-11T08:18:09.806Z,9.10
2023-01-11T08:20:36.949Z,8.57
2023-01-11T08:23:07.945Z,8.93
2023-01-11T08:25:35.403Z,8.53
2023-01-11T08:28:03.404Z,8.43
2023-01-11T08:30:30.671Z,7.87
2023-01-11T08:32:58.044Z,8.67
2023-01-11T08:35:26.000Z,8.67
2023-01-11T08:37:53.312Z,9.30
2023-01-11T08:40:23.717Z,8.27
2023-01-11T08:42:54.795Z,8.27
2023-01-11T08:45:22.226Z,8.03
2023-01-11T08:47:50.879Z,8.40
2023-01-11T08:50:18.727Z,7.73
2023-01-11T08:52:46.814Z,8.27
2023-01-11T08:55:13.998Z,8.57
2023-01-11T08:57:41.165Z,7.77
2023-01-11T09:00:09.100Z,7.53
2023-01-11T09:02:36.327Z,7.77
2023-01-11T09:05:03.637Z,8.23
2023-01-11T09:07:30.864Z,7.60
2023-01-11T09:09:58.026Z,8.30
2023-01-11T09:12:27.109Z,9.60
2023-01-11T09:14:54.298Z,9.33
2023-01-11T09:17:21.479Z,8.00
2023-01-11T09:19:48.831Z,8.07
2023-01-11T09:22:16.264Z,8.20
2023-01-11T09:24:43.460Z,7.70
2023-01-11T09:27:11.864Z,8.10
2023-01-11T09:29:39.238Z,7.60
2023-01-11T09:32:06.760Z,7.93
2023-01-11T09:34:35.074Z,8.30
2023-01-11T09:37:03.964Z,8.83
2023-01-11T09:39:31.275Z,8.60
2023-01-11T09:42:01.900Z,7.73
2023-01-11T09:44:29.918Z,8.67
2023-01-11T09:47:17.632Z,8.30
2023-01-11T09:49:51.974Z,8.33
2023-01-11T09:52:25.160Z,9.00
2023-01-11T09:54:52.757Z,8.17
2023-01-11T09:57:31.850Z,7.73
2023-01-11T10:00:14.603Z,7.03
2023-01-11T10:02:41.710Z,7.90
2023-01-11T10:05:29.794Z,6.70
2023-01-11T10:18:22.721Z,6.30
2023-01-11T10:18:26.397Z,6.63
2023-01-11T10:20:01.402Z,6.63
2023-01-11T10:22:36.899Z,6.77
2023-01-11T10:25:16.939Z,6.97
2023-01-11T10:27:56.817Z,7.17
2023-01-11T10:30:42.067Z,6.87
2023-01-11T10:33:30.405Z,7.10
2023-01-11T10:36:06.878Z,7.53
2023-01-11T10:39:03.381Z,7.93
2023-01-11T10:41:38.725Z,6.47
2023-01-11T10:44:09.857Z,6.80
2023-01-11T10:46:39.944Z,6.63
2023-01-11T10:49:19.110Z,7.53
2023-01-11T10:51:49.112Z,7.40
2023-01-11T10:54:18.243Z,6.80
2023-01-11T10:57:08.141Z,7.53
2023-01-11T10:59:52.450Z,9.37
2023-01-11T11:02:31.923Z,8.23
2023-01-11T11:05:08.327Z,6.73
2023-01-11T11:07:41.516Z,7.00
2023-01-11T11:10:18.996Z,8.13
2023-01-11T11:13:07.305Z,7.30
2023-01-11T11:15:43.148Z,7.00
2023-01-11T11:18:11.181Z,7.40
2023-01-11T11:20:38.394Z,6.53
2023-01-11T11:23:05.552Z,5.27
2023-01-11T11:25:34.018Z,6.37
2023-01-11T11:28:06.137Z,6.13
2023-01-11T11:30:38.587Z,5.60
2023-01-11T11:33:08.659Z,5.47
2023-01-11T11:35:41.243Z,4.90
2023-01-11T11:38:17.100Z,5.57
2023-01-11T11:40:44.263Z,6.70
2023-01-11T11:43:14.612Z,5.80
2023-01-11T11:45:51.140Z,5.47
2023-01-11T11:48:19.085Z,5.93
2023-01-11T11:50:46.828Z,5.50
2023-01-11T11:53:37.017Z,5.97
2023-01-11T11:56:27.586Z,6.83
2023-01-11T11:58:55.274Z,6.63
2023-01-11T12:01:30.887Z,6.70
2023-01-11T12:03:59.625Z,5.73
2023-01-11T12:06:30.225Z,4.83
2023-01-11T12:08:58.185Z,5.53
2023-01-11T12:11:32.588Z,6.27
2023-01-11T12:14:02.417Z,6.23
2023-01-11T12:16:36.225Z,5.60
2023-01-11T12:19:03.484Z,5.70
2023-01-11T12:21:30.849Z,6.93
2023-01-11T12:24:09.623Z,6.93
2023-01-11T12:26:39.637Z,7.07
2023-01-11T12:29:22.262Z,6.30
2023-01-11T12:31:54.710Z,6.53
2023-01-11T12:34:21.931Z,9.80
2023-01-11T12:37:00.721Z,8.60
2023-01-11T12:39:30.650Z,8.77
2023-01-11T12:42:00.590Z,9.73
2023-01-11T12:44:37.048Z,9.77
2023-01-11T12:47:17.980Z,8.20
2023-01-11T12:50:00.791Z,7.47
2023-01-11T12:52:29.261Z,7.97
2023-01-11T12:55:12.677Z,8.20
2023-01-11T12:58:07.886Z,6.93
2023-01-11T13:00:44.161Z,7.03
2023-01-11T13:03:33.470Z,6.50
2023-01-11T13:06:09.806Z,6.47
2023-01-11T13:08:57.225Z,7.93
2023-01-11T13:11:36.495Z,7.17
2023-01-11T13:14:03.731Z,9.60
2023-01-11T13:16:40.113Z,9.20
2023-01-11T13:19:32.931Z,7.20
2023-01-11T13:22:04.494Z,7.63
2023-01-11T13:24:32.471Z,7.20
2023-01-11T13:27:02.005Z,7.30
2023-01-11T13:29:33.745Z,9.00
2023-01-11T13:32:03.226Z,7.10
2023-01-11T13:34:30.407Z,6.87
2023-01-11T13:37:02.722Z,8.07
2023-01-11T13:39:35.875Z,7.57
2023-01-11T13:42:04.766Z,7.33
2023-01-11T13:44:36.917Z,7.17
2023-01-11T13:47:14.107Z,7.53
2023-01-11T13:49:54.727Z,6.80
2023-01-11T13:52:40.829Z,6.70
2023-01-11T13:55:25.968Z,7.07
2023-01-11T13:57:59.155Z,7.93
2023-01-11T14:00:26.435Z,7.30
2023-01-11T14:02:56.654Z,7.97
2023-01-11T14:05:23.960Z,7.70
2023-01-11T14:08:01.691Z,7.67
2023-01-11T14:10:38.744Z,9.17
2023-01-11T14:13:57.914Z,7.93
2023-01-11T14:16:34.580Z,7.20
2023-01-11T14:19:32.923Z,6.50
2023-01-11T14:22:06.090Z,7.77
2023-01-11T14:24:39.416Z,8.53
2023-01-11T14:27:25.472Z,7.63
2023-01-11T14:30:04.264Z,6.93
2023-01-11T14:32:34.335Z,7.13
2023-01-11T14:35:20.403Z,7.70
2023-01-11T14:38:12.793Z,7.70
2023-01-11T14:41:03.225Z,7.13
2023-01-11T14:43:39.463Z,7.63
2023-01-11T14:46:09.447Z,7.40
2023-01-11T14:48:55.312Z,6.43
2023-01-11T14:51:33.779Z,7.73
2023-01-11T14:54:06.754Z,9.87
2023-01-11T14:56:36.660Z,9.23
2023-01-11T14:59:05.012Z,9.30
2023-01-11T15:01:52.140Z,10.33
2023-01-11T15:04:22.786Z,9.43
2023-01-11T15:06:55.117Z,8.80
2023-01-11T15:09:40.806Z,9.47
2023-01-11T15:12:12.308Z,10.13
2023-01-11T15:14:39.722Z,13.73
2023-01-11T15:17:25.483Z,10.87
2023-01-11T15:19:53.481Z,8.70
2023-01-11T15:22:29.807Z,8.70
2023-01-11T15:25:02.024Z,8.83
2023-01-11T15:27:37.451Z,9.47
2023-01-11T15:30:07.570Z,11.37
2023-01-11T15:32:36.199Z,11.13
2023-01-11T15:35:31.952Z,14.37
2023-01-11T15:38:18.125Z,12.00
2023-01-11T15:40:50.295Z,10.97
2023-01-11T15:43:35.982Z,11.60
2023-01-11T15:46:40.672Z,13.00
2023-01-11T15:49:20.175Z,13.53
2023-01-11T15:52:06.227Z,11.90
2023-01-11T15:54:48.643Z,10.10
2023-01-11T15:57:15.784Z,10.33
2023-01-11T16:00:01.712Z,9.43
2023-01-11T16:02:28.944Z,12.50
2023-01-11T16:05:16.385Z,10.63
2023-01-11T16:07:55.180Z,13.50
2023-01-11T16:10:39.271Z,11.10
2023-01-11T16:13:25.251Z,11.03
2023-01-11T16:15:58.677Z,13.87
2023-01-11T16:18:31.129Z,12.93
2023-01-11T16:21:03.721Z,14.70
2023-01-11T16:23:34.208Z,12.93
2023-01-11T16:26:02.142Z,12.50
2023-01-11T16:28:29.389Z,11.70
2023-01-11T16:31:01.120Z,11.77
2023-01-11T16:33:31.821Z,11.00
2023-01-11T16:36:13.294Z,13.43
2023-01-11T16:38:48.591Z,15.10
2023-01-11T16:41:16.649Z,19.90
2023-01-11T16:43:49.518Z,14.50
2023-01-11T16:46:30.722Z,17.73
2023-01-11T16:49:17.338Z,12.83
2023-01-11T16:51:45.614Z,11.80
2023-01-11T16:54:20.968Z,13.20
2023-01-11T16:56:49.820Z,11.10
2023-01-11T16:59:19.043Z,11.00
2023-01-11T17:01:56.632Z,10.50
2023-01-11T17:04:28.884Z,11.27
2023-01-11T17:06:56.822Z,14.43
2023-01-11T17:09:25.896Z,15.80
2023-01-11T17:11:53.550Z,16.30
2023-01-11T17:14:23.466Z,16.77
2023-01-11T17:16:52.356Z,19.87
2023-01-11T17:19:24.481Z,21.20
2023-01-11T17:21:53.209Z,18.10
2023-01-11T17:24:24.922Z,15.50
2023-01-11T17:27:02.367Z,18.30
2023-01-11T17:29:34.429Z,16.00
2023-01-11T17:32:03.406Z,17.47
2023-01-11T17:34:35.101Z,20.60
2023-01-11T17:37:03.039Z,22.50
2023-01-11T17:39:33.569Z,22.77
2023-01-11T17:42:29.116Z,20.37
2023-01-11T17:45:14.911Z,18.33
2023-01-11T17:47:43.194Z,18.80
2023-01-11T17:50:21.470Z,17.43
2023-01-11T17:52:54.719Z,16.90
2023-01-11T17:55:25.934Z,16.63
2023-01-11T17:58:12.058Z,20.03
2023-01-11T18:00:39.530Z,18.47
2023-01-11T18:03:10.777Z,17.33
2023-01-11T18:05:38.050Z,22.10
2023-01-11T18:08:09.649Z,21.07
2023-01-11T18:10:39.235Z,18.77
2023-01-11T18:13:06.595Z,13.97
2023-01-11T18:15:35.364Z,15.47
2023-01-11T18:18:02.591Z,15.80
2023-01-11T18:20:29.886Z,16.33
2023-01-11T18:22:59.025Z,16.17
2023-01-11T18:25:27.570Z,12.60
2023-01-11T18:28:13.167Z,12.43
2023-01-11T18:30:41.355Z,10.27
2023-01-11T18:33:27.969Z,11.17
2023-01-11T18:35:58.072Z,10.13
2023-01-11T18:38:27.072Z,10.30
2023-01-11T18:40:54.905Z,10.13
2023-01-11T18:43:32.036Z,10.20
2023-01-11T18:45:59.249Z,9.50
2023-01-11T18:48:26.635Z,10.70
2023-01-11T18:50:54.598Z,10.27
2023-01-11T18:53:23.674Z,11.30
2023-01-11T18:55:50.830Z,12.30
2023-01-11T18:58:18.144Z,13.87
2023-01-11T19:00:45.334Z,14.70
2023-01-11T19:03:12.748Z,15.20
2023-01-11T19:05:40.199Z,18.17
2023-01-11T19:08:07.823Z,15.90
2023-01-11T19:10:35.310Z,14.60
2023-01-11T19:13:02.779Z,10.33
2023-01-11T19:15:30.052Z,13.23
2023-01-11T19:17:57.322Z,10.63
2023-01-11T19:20:24.629Z,11.30
2023-01-11T19:22:51.985Z,10.97
2023-01-11T19:25:19.342Z,12.77
2023-01-11T19:27:46.522Z,10.40
2023-01-11T19:30:14.259Z,9.73
2023-01-11T19:32:41.428Z,11.50
2023-01-11T19:35:08.807Z,14.40
2023-01-11T19:37:37.683Z,13.70
2023-01-11T19:40:05.826Z,14.40
2023-01-11T19:42:33.056Z,12.90
2023-01-11T19:45:00.519Z,12.97
2023-01-11T19:47:27.865Z,12.37
2023-01-11T19:49:58.875Z,10.93
2023-01-11T19:52:26.069Z,13.43
2023-01-11T19:54:56.850Z,19.10
2023-01-11T19:57:24.026Z,12.67
2023-01-11T19:59:51.408Z,11.53
2023-01-11T20:02:19.857Z,11.07
2023-01-11T20:04:47.114Z,10.83
2023-01-11T20:07:14.931Z,11.27
2023-01-11T20:09:42.350Z,11.23
2023-01-11T20:12:11.469Z,11.37
2023-01-11T20:14:40.451Z,10.50
2023-01-11T20:17:08.134Z,10.77
2023-01-11T20:19:35.312Z,10.80
2023-01-11T20:22:49.823Z,10.70
2023-01-11T20:25:17.924Z,10.00
2023-01-11T20:27:45.457Z,11.03
2023-01-11T20:30:15.967Z,11.33
2023-01-11T20:32:43.233Z,11.50
2023-01-11T20:35:11.025Z,10.33
2023-01-11T20:37:38.481Z,9.93
2023-01-11T20:40:05.930Z,11.10
2023-01-11T20:42:34.205Z,9.60
2023-01-11T20:45:01.472Z,10.03
2023-01-11T20:47:28.690Z,10.60
2023-01-11T20:49:55.896Z,10.97
2023-01-11T20:52:23.197Z,9.80
2023-01-11T20:54:50.363Z,10.33
2023-01-11T20:57:17.594Z,10.43
2023-01-11T20:59:44.862Z,9.67
2023-01-11T21:02:13.681Z,9.97
2023-01-11T21:04:41.077Z,10.03
2023-01-11T21:07:08.255Z,9.60
2023-01-11T21:09:35.715Z,9.30
2023-01-11T21:12:03.052Z,9.87
2023-01-11T21:14:30.569Z,10.50
2023-01-11T21:16:57.958Z,9.87
2023-01-11T21:19:25.800Z,9.20
2023-01-11T21:21:52.991Z,9.20
2023-01-11T21:24:20.955Z,9.33
2023-01-11T21:26:48.366Z,8.90
2023-01-11T21:29:15.821Z,8.90
2023-01-11T21:31:43.120Z,8.53
2023-01-11T21:34:13.599Z,8.57
2023-01-11T21:36:41.211Z,9.07
2023-01-11T21:39:09.418Z,9.53
2023-01-11T21:41:55.207Z,9.23
2023-01-11T21:44:42.622Z,9.47
2023-01-11T21:47:09.830Z,9.00
2023-01-11T21:49:37.055Z,9.23
2023-01-11T21:52:04.323Z,9.10
2023-01-11T21:54:31.557Z,9.20
2023-01-11T21:56:58.696Z,10.13
2023-01-11T21:59:26.022Z,9.13
2023-01-11T22:01:53.210Z,8.73
2023-01-11T22:04:21.116Z,8.77
2023-01-11T22:06:53.914Z,9.63
2023-01-11T22:09:22.200Z,8.80
2023-01-11T22:11:50.949Z,9.33
2023-01-11T22:14:18.129Z,9.97
2023-01-11T22:16:45.358Z,8.83
2023-01-11T22:19:12.593Z,8.67
2023-01-11T22:21:40.127Z,8.17
2023-01-11T22:24:10.246Z,8.33
2023-01-11T22:26:39.066Z,8.47
2023-01-11T22:29:16.607Z,8.43
2023-01-11T22:31:54.760Z,8.13
2023-01-11T22:34:22.136Z,8.43
2023-01-11T22:36:49.590Z,8.80
2023-01-11T22:39:19.308Z,8.30
2023-01-11T22:41:47.055Z,8.43
2023-01-11T22:44:14.320Z,8.23
2023-01-11T22:46:42.024Z,8.23
2023-01-11T22:49:09.548Z,8.53
2023-01-11T22:51:36.772Z,8.60
2023-01-11T22:54:04.171Z,8.03
2023-01-11T22:56:31.750Z,8.30
2023-01-11T22:58:58.924Z,8.37
2023-01-11T23:01:30.384Z,8.03
2023-01-11T23:03:58.109Z,8.20
2023-01-11T23:06:26.527Z,7.80
2023-01-11T23:08:54.274Z,8.00
2023-01-11T23:11:42.514Z,8.10
2023-01-11T23:14:10.909Z,8.97
2023-01-11T23:16:38.156Z,9.30
2023-01-11T23:19:06.089Z,9.07
2023-01-11T23:21:33.259Z,8.40
2023-01-11T23:24:03.808Z,8.13
2023-01-11T23:26:31.191Z,8.27
2023-01-11T23:28:58.390Z,8.60
2023-01-11T23:31:26.370Z,8.30
2023-01-11T23:33:55.023Z,9.20
2023-01-11T23:36:23.341Z,8.30
2023-01-11T23:38:50.603Z,8.00
2023-01-11T23:41:37.619Z,8.47
2023-01-11T23:44:05.547Z,8.73
2023-01-11T23:46:51.624Z,8.10
2023-01-11T23:49:18.820Z,7.97
2023-01-11T23:51:46.044Z,8.43
2023-01-11T23:54:13.671Z,8.27
2023-01-11T23:56:40.855Z,7.80
2023-01-11T23:59:08.353Z,8.10
